Time;durP1;ratioP1;P1;durP2;ratioP2;P2;SDS_P1;SDS_P2;PMS_P1;PMS_P2;Temp;Humidity;BMP_temperature;BMP_pressure;BME280_temperature;BME280_humidity;BME280_pressure;Samples;Min_cycle;Max_cycle;Signal;HPM_P1;HPM_P2
2022/11/07 00:01:52;;;;;;;25.77;15.93;;;;;;;;;;6595572;28;20180;-92
2022/11/07 00:05:02;;;;;;;23.73;15.60;;;;;;;;;;6577582;28;20542;-92
2022/11/07 00:08:13;;;;;;;24.57;15.80;;;;;;;;;;6577088;28;20330;-92
2022/11/07 00:11:23;;;;;;;24.93;15.63;;;;;;;;;;6594828;28;20196;-93
2022/11/07 00:14:33;;;;;;;26.70;15.77;;;;;;;;;;6596539;28;20234;-92
2022/11/07 00:17:43;;;;;;;26.07;15.43;;;;;;;;;;6600217;28;20691;-92
2022/11/07 00:20:54;;;;;;;23.83;15.23;;;;;;;;;;6599237;28;20176;-92
2022/11/07 00:24:06;;;;;;;24.83;15.60;;;;;;;;;;6599773;28;20172;-94
2022/11/07 00:27:16;;;;;;;24.07;15.77;;;;;;;;;;6599748;28;20204;-95
2022/11/07 00:30:26;;;;;;;29.47;16.53;;;;;;;;;;6581993;28;20185;-94
2022/11/07 00:33:37;;;;;;;22.50;15.00;;;;;;;;;;6579284;28;20169;-94
2022/11/07 00:36:48;;;;;;;25.20;16.90;;;;;;;;;;6599937;28;20195;-95
2022/11/07 00:39:58;;;;;;;26.63;15.17;;;;;;;;;;6581931;28;20651;-94
2022/11/07 00:43:09;;;;;;;22.27;14.63;;;;;;;;;;6581634;28;20180;-94
2022/11/07 00:46:20;;;;;;;24.10;15.33;;;;;;;;;;6599854;28;20207;-94
2022/11/07 00:49:30;;;;;;;23.47;14.70;;;;;;;;;;6600016;28;20267;-94
2022/11/07 00:52:40;;;;;;;26.00;16.27;;;;;;;;;;6599961;28;20168;-94
2022/11/07 00:55:50;;;;;;;22.67;13.63;;;;;;;;;;6599515;28;20173;-94
2022/11/07 00:59:01;;;;;;;21.20;15.17;;;;;;;;;;6600161;28;20176;-94
2022/11/07 01:02:11;;;;;;;24.37;15.73;;;;;;;;;;6600066;28;20613;-94
2022/11/07 01:05:21;;;;;;;29.47;17.23;;;;;;;;;;6599612;28;20173;-94
2022/11/07 01:08:32;;;;;;;26.80;17.13;;;;;;;;;;6599559;28;20692;-94
2022/11/07 01:11:42;;;;;;;31.80;19.70;;;;;;;;;;6599450;28;20173;-94
2022/11/07 01:14:53;;;;;;;26.30;16.43;;;;;;;;;;6581536;28;20188;-94
2022/11/07 01:18:03;;;;;;;25.20;15.43;;;;;;;;;;6599981;28;20609;-93
2022/11/07 01:21:13;;;;;;;26.90;16.50;;;;;;;;;;6581943;28;20200;-93
2022/11/07 01:24:24;;;;;;;28.53;17.97;;;;;;;;;;6598412;28;20182;-93
2022/11/07 01:27:34;;;;;;;20.87;15.37;;;;;;;;;;6599055;28;20203;-94
2022/11/07 01:30:45;;;;;;;31.37;17.97;;;;;;;;;;6580838;28;20185;-93
2022/11/07 01:33:55;;;;;;;27.67;17.83;;;;;;;;;;6598731;28;20512;-94
2022/11/07 01:37:05;;;;;;;27.63;16.50;;;;;;;;;;6598772;28;20218;-94
2022/11/07 01:40:15;;;;;;;29.37;16.50;;;;;;;;;;6581070;28;20640;-93
2022/11/07 01:43:44;;;;;;;23.63;15.37;;;;;;;;;;6599022;28;20168;-94
2022/11/07 01:46:56;;;;;;;28.40;16.87;;;;;;;;;;6598517;28;20200;-93
2022/11/07 01:50:07;;;;;;;27.90;16.47;;;;;;;;;;6581122;28;20625;-94
2022/11/07 01:53:18;;;;;;;33.53;19.90;;;;;;;;;;6598004;28;20259;-94
2022/11/07 01:56:30;;;;;;;28.57;16.57;;;;;;;;;;6598039;28;20176;-94
2022/11/07 01:59:41;;;;;;;25.83;16.20;;;;;;;;;;6597998;28;20511;-94
2022/11/07 02:02:56;;;;;;;26.50;16.07;;;;;;;;;;6580014;28;20180;-94
2022/11/07 02:06:13;;;;;;;28.97;17.40;;;;;;;;;;6599113;28;20526;-94
2022/11/07 02:09:23;;;;;;;28.10;16.70;;;;;;;;;;6597582;28;20678;-94
2022/11/07 02:12:33;;;;;;;24.87;15.77;;;;;;;;;;6597625;28;20179;-93
2022/11/07 02:15:45;;;;;;;26.93;15.87;;;;;;;;;;6597144;28;20185;-94
2022/11/07 02:18:55;;;;;;;29.33;16.77;;;;;;;;;;6597462;28;20536;-94
2022/11/07 02:22:26;;;;;;;30.67;17.93;;;;;;;;;;6597319;28;20252;-94
2022/11/07 02:25:36;;;;;;;29.60;17.47;;;;;;;;;;6579919;28;20187;-94
2022/11/07 02:28:47;;;;;;;22.50;13.33;;;;;;;;;;6597902;28;20200;-94
2022/11/07 02:32:01;;;;;;;25.53;15.43;;;;;;;;;;6597873;28;20209;-94
2022/11/07 02:35:30;;;;;;;31.63;18.23;;;;;;;;;;6579695;28;20184;-94
2022/11/07 02:38:41;;;;;;;21.37;14.23;;;;;;;;;;6596357;28;20180;-93
2022/11/07 02:41:52;;;;;;;28.03;16.33;;;;;;;;;;6596903;28;20172;-94
2022/11/07 02:45:03;;;;;;;24.17;15.37;;;;;;;;;;6596826;28;20172;-93
2022/11/07 02:48:14;;;;;;;26.50;15.90;;;;;;;;;;6596905;28;20209;-94
2022/11/07 02:51:26;;;;;;;23.20;15.30;;;;;;;;;;6596646;28;20235;-94
2022/11/07 02:54:36;;;;;;;23.97;15.27;;;;;;;;;;6596917;28;20212;-94
2022/11/07 02:57:46;;;;;;;24.27;15.60;;;;;;;;;;6597643;28;20168;-94
2022/11/07 03:01:01;;;;;;;23.87;16.27;;;;;;;;;;6596803;28;20256;-94
2022/11/07 03:04:12;;;;;;;29.33;16.23;;;;;;;;;;6597580;28;20601;-94
2022/11/07 03:07:24;;;;;;;24.43;15.80;;;;;;;;;;6578584;28;20247;-94
2022/11/07 03:10:34;;;;;;;29.17;16.93;;;;;;;;;;6578940;28;20649;-94
2022/11/07 03:13:48;;;;;;;24.97;15.67;;;;;;;;;;6578861;28;20176;-94
2022/11/07 03:16:58;;;;;;;26.43;15.87;;;;;;;;;;6596874;28;20580;-94
2022/11/07 03:20:09;;;;;;;27.90;16.50;;;;;;;;;;6595779;28;20180;-94
2022/11/07 03:23:19;;;;;;;22.47;15.40;;;;;;;;;;6579034;28;20234;-94
2022/11/07 03:26:30;;;;;;;24.37;15.93;;;;;;;;;;6595958;28;20241;-94
2022/11/07 03:29:40;;;;;;;27.03;17.37;;;;;;;;;;6595798;28;20207;-94
2022/11/07 03:32:51;;;;;;;22.37;15.90;;;;;;;;;;6578614;28;20176;-94
2022/11/07 03:36:02;;;;;;;23.77;15.97;;;;;;;;;;6578600;28;20193;-95
2022/11/07 03:39:12;;;;;;;22.73;15.60;;;;;;;;;;6578854;28;20183;-94
2022/11/07 03:42:22;;;;;;;24.83;16.43;;;;;;;;;;6596582;28;20168;-94
2022/11/07 03:45:33;;;;;;;23.60;15.77;;;;;;;;;;6596596;28;20184;-94
2022/11/07 03:48:43;;;;;;;21.87;15.27;;;;;;;;;;6598182;28;20704;-94
2022/11/07 03:51:53;;;;;;;24.27;15.50;;;;;;;;;;6601094;28;20168;-93
2022/11/07 03:55:05;;;;;;;23.73;15.70;;;;;;;;;;6583671;28;20196;-94
2022/11/07 03:58:15;;;;;;;26.20;17.10;;;;;;;;;;6601607;28;20176;-94
2022/11/07 04:01:26;;;;;;;23.37;15.60;;;;;;;;;;6601240;28;20160;-94
2022/11/07 04:04:36;;;;;;;24.60;16.97;;;;;;;;;;6583656;28;20218;-94
2022/11/07 04:07:47;;;;;;;22.40;15.60;;;;;;;;;;6601014;28;20551;-94
2022/11/07 04:10:57;;;;;;;22.77;15.70;;;;;;;;;;6601364;28;20233;-93
2022/11/07 04:17:38;;;;;;;25.93;16.57;;;;;;;;;;6601223;28;20166;-94
2022/11/07 04:20:48;;;;;;;22.67;15.23;;;;;;;;;;6600749;28;20251;-94
2022/11/07 04:23:58;;;;;;;23.73;15.87;;;;;;;;;;6600299;28;20200;-94
2022/11/07 04:30:38;;;;;;;24.17;16.13;;;;;;;;;;6600541;28;20167;-94
2022/11/07 04:33:48;;;;;;;21.60;15.07;;;;;;;;;;6601113;28;20169;-94
2022/11/07 04:36:58;;;;;;;24.83;15.83;;;;;;;;;;6600668;28;20502;-94
2022/11/07 04:40:09;;;;;;;25.07;17.07;;;;;;;;;;6582481;28;20176;-94
2022/11/07 04:43:19;;;;;;;26.87;17.33;;;;;;;;;;6600582;28;20172;-93
2022/11/07 04:46:30;;;;;;;27.07;18.00;;;;;;;;;;6599654;28;20219;-91
2022/11/07 04:49:40;;;;;;;24.80;16.40;;;;;;;;;;6599701;28;20180;-91
2022/11/07 04:52:50;;;;;;;26.57;17.17;;;;;;;;;;6600278;28;20172;-91
2022/11/07 04:56:01;;;;;;;33.77;21.77;;;;;;;;;;6599345;28;20242;-92
2022/11/07 04:59:11;;;;;;;26.47;17.87;;;;;;;;;;6600112;28;20524;-91
2022/11/07 05:02:22;;;;;;;26.87;16.80;;;;;;;;;;6598685;28;20313;-91
2022/11/07 05:05:32;;;;;;;26.47;17.27;;;;;;;;;;6599263;28;20184;-91
2022/11/07 05:08:43;;;;;;;25.60;17.30;;;;;;;;;;6599164;28;20688;-91
2022/11/07 05:11:53;;;;;;;24.77;18.07;;;;;;;;;;6581659;28;20183;-92
2022/11/07 05:15:03;;;;;;;26.13;17.37;;;;;;;;;;6598813;28;20191;-91
2022/11/07 05:18:15;;;;;;;25.03;17.43;;;;;;;;;;6600090;28;20219;-92
2022/11/07 05:21:25;;;;;;;21.43;15.93;;;;;;;;;;6581436;28;20173;-92
2022/11/07 05:24:36;;;;;;;20.30;15.00;;;;;;;;;;6599129;28;20176;-94
2022/11/07 05:27:46;;;;;;;22.20;15.73;;;;;;;;;;6599307;28;20664;-94
2022/11/07 05:30:59;;;;;;;21.73;14.87;;;;;;;;;;6599165;28;20202;-94
2022/11/07 05:34:09;;;;;;;21.83;15.63;;;;;;;;;;6599764;28;20260;-94
2022/11/07 05:37:19;;;;;;;20.57;15.97;;;;;;;;;;6598989;28;20319;-94
2022/11/07 05:40:30;;;;;;;21.50;15.70;;;;;;;;;;6581358;28;20640;-93
2022/11/07 05:43:40;;;;;;;22.13;14.70;;;;;;;;;;6581665;28;20176;-95
2022/11/07 05:46:50;;;;;;;19.77;14.90;;;;;;;;;;6581555;28;20200;-94
2022/11/07 05:50:01;;;;;;;17.90;13.17;;;;;;;;;;6598249;28;20234;-94
2022/11/07 05:53:11;;;;;;;20.83;14.57;;;;;;;;;;6598874;28;20168;-94
2022/11/07 05:56:21;;;;;;;20.47;14.30;;;;;;;;;;6598378;28;20196;-94
2022/11/07 05:59:32;;;;;;;20.13;14.77;;;;;;;;;;6597922;28;20168;-94
2022/11/07 06:02:42;;;;;;;20.03;14.37;;;;;;;;;;6597893;28;20180;-93
2022/11/07 06:05:53;;;;;;;19.37;14.97;;;;;;;;;;6597674;28;20602;-94
2022/11/07 06:09:03;;;;;;;20.57;14.77;;;;;;;;;;6599438;28;20220;-94
2022/11/07 06:12:13;;;;;;;21.93;15.77;;;;;;;;;;6597062;28;20255;-91
2022/11/07 06:15:24;;;;;;;16.50;12.43;;;;;;;;;;6580392;28;20180;-91
2022/11/07 06:18:36;;;;;;;23.87;15.23;;;;;;;;;;6598360;28;20177;-91
2022/11/07 06:21:46;;;;;;;21.07;15.73;;;;;;;;;;6580690;28;20523;-91
2022/11/07 06:24:56;;;;;;;20.57;15.07;;;;;;;;;;6598418;28;20260;-91
2022/11/07 06:28:09;;;;;;;19.27;14.83;;;;;;;;;;6597261;28;20204;-91
2022/11/07 06:31:19;;;;;;;20.77;15.17;;;;;;;;;;6580157;28;20621;-91
2022/11/07 06:34:38;;;;;;;23.57;15.27;;;;;;;;;;6644942;28;20568;-92
2022/11/07 06:37:49;;;;;;;17.90;14.07;;;;;;;;;;6629235;28;20180;-93
2022/11/07 06:41:09;;;;;;;19.17;13.60;;;;;;;;;;6617985;28;20179;-93
2022/11/07 06:44:20;;;;;;;17.77;12.87;;;;;;;;;;6619315;28;20210;-93
2022/11/07 06:47:30;;;;;;;19.60;13.63;;;;;;;;;;6617888;28;20171;-92
2022/11/07 06:50:40;;;;;;;19.73;14.67;;;;;;;;;;6618499;28;20164;-92
2022/11/07 06:53:53;;;;;;;20.43;14.70;;;;;;;;;;6618455;28;20265;-91
2022/11/07 06:57:03;;;;;;;18.93;13.90;;;;;;;;;;6618631;28;20522;-94
2022/11/07 07:00:14;;;;;;;20.33;14.43;;;;;;;;;;6617079;28;20183;-92
2022/11/07 07:03:24;;;;;;;22.60;16.00;;;;;;;;;;6618863;28;20172;-91
2022/11/07 07:06:34;;;;;;;19.73;15.60;;;;;;;;;;6618741;28;20176;-91
2022/11/07 07:09:45;;;;;;;24.43;15.87;;;;;;;;;;6618742;28;20160;-92
2022/11/07 07:12:55;;;;;;;19.57;15.33;;;;;;;;;;6618677;28;20196;-91
2022/11/07 07:16:07;;;;;;;21.03;15.03;;;;;;;;;;6618464;28;20250;-91
2022/11/07 07:19:17;;;;;;;19.57;15.50;;;;;;;;;;6618089;28;20235;-91
2022/11/07 07:22:28;;;;;;;24.33;16.23;;;;;;;;;;6617675;28;20171;-91
2022/11/07 07:25:38;;;;;;;23.70;16.87;;;;;;;;;;6617574;28;20164;-91
2022/11/07 07:28:48;;;;;;;19.10;14.63;;;;;;;;;;6618293;28;20168;-91
2022/11/07 07:31:59;;;;;;;21.10;15.57;;;;;;;;;;6617825;28;20682;-90
2022/11/07 07:35:09;;;;;;;22.17;14.97;;;;;;;;;;6617731;28;20175;-90
2022/11/07 07:38:19;;;;;;;17.47;14.27;;;;;;;;;;6618429;28;20489;-90
2022/11/07 07:41:30;;;;;;;20.90;14.70;;;;;;;;;;6617630;28;20176;-90
2022/11/07 07:44:40;;;;;;;21.03;15.73;;;;;;;;;;6606904;28;20168;-90
2022/11/07 07:47:51;;;;;;;21.33;15.83;;;;;;;;;;6599597;28;20525;-90
2022/11/07 07:51:02;;;;;;;21.37;16.13;;;;;;;;;;6599973;28;20230;-90
2022/11/07 07:54:12;;;;;;;17.67;15.37;;;;;;;;;;6599701;28;20212;-90
2022/11/07 07:57:22;;;;;;;20.67;15.70;;;;;;;;;;6598039;28;20726;-91
2022/11/07 08:00:33;;;;;;;22.00;16.20;;;;;;;;;;6597899;28;20180;-91
2022/11/07 08:03:43;;;;;;;20.03;14.60;;;;;;;;;;6599004;28;20195;-91
2022/11/07 08:06:54;;;;;;;19.07;14.63;;;;;;;;;;6598195;28;20263;-91
2022/11/07 08:10:04;;;;;;;18.70;13.87;;;;;;;;;;6599463;28;20173;-91
2022/11/07 08:13:14;;;;;;;20.83;15.47;;;;;;;;;;6599680;28;20771;-91
2022/11/07 08:16:25;;;;;;;19.63;14.30;;;;;;;;;;6598066;28;20183;-91
2022/11/07 08:19:35;;;;;;;23.73;16.37;;;;;;;;;;6599599;28;20168;-91
2022/11/07 08:22:45;;;;;;;19.77;15.10;;;;;;;;;;6597881;28;20633;-91
2022/11/07 08:25:57;;;;;;;18.13;13.80;;;;;;;;;;6598959;28;20207;-91
2022/11/07 08:29:08;;;;;;;19.80;14.60;;;;;;;;;;6598385;28;20180;-91
2022/11/07 08:32:18;;;;;;;20.60;15.33;;;;;;;;;;6597177;28;20259;-91
2022/11/07 08:35:29;;;;;;;19.20;15.57;;;;;;;;;;6598574;28;20199;-91
2022/11/07 08:38:39;;;;;;;18.67;14.73;;;;;;;;;;6598436;28;20168;-91
2022/11/07 08:41:50;;;;;;;21.23;14.73;;;;;;;;;;6598045;28;20242;-91
2022/11/07 08:45:00;;;;;;;19.87;14.73;;;;;;;;;;6597555;28;20622;-91
2022/11/07 08:48:10;;;;;;;17.17;13.97;;;;;;;;;;6597935;28;20169;-91
2022/11/07 08:51:20;;;;;;;19.30;15.47;;;;;;;;;;6597574;28;20181;-91
2022/11/07 08:54:32;;;;;;;18.80;15.60;;;;;;;;;;6596254;28;20673;-90
2022/11/07 08:57:42;;;;;;;21.37;17.70;;;;;;;;;;6595441;28;20242;-91
2022/11/07 09:00:53;;;;;;;19.53;16.80;;;;;;;;;;6597128;28;20180;-91
2022/11/07 09:04:03;;;;;;;18.03;14.37;;;;;;;;;;6597062;28;20537;-91
2022/11/07 09:07:13;;;;;;;21.50;16.23;;;;;;;;;;6597385;28;20173;-91
2022/11/07 09:10:24;;;;;;;18.27;13.90;;;;;;;;;;6596733;28;20179;-91
2022/11/07 09:13:35;;;;;;;18.97;13.60;;;;;;;;;;6595962;28;20661;-91
2022/11/07 09:16:45;;;;;;;17.97;13.50;;;;;;;;;;6597435;28;20168;-90
2022/11/07 09:19:56;;;;;;;15.87;12.73;;;;;;;;;;6596741;28;20164;-91
2022/11/07 09:23:06;;;;;;;18.70;13.63;;;;;;;;;;6596611;28;20616;-90
2022/11/07 09:26:16;;;;;;;16.47;13.13;;;;;;;;;;6595721;28;20522;-90
2022/11/07 09:29:27;;;;;;;16.07;13.60;;;;;;;;;;6596466;28;20180;-91
2022/11/07 09:32:37;;;;;;;15.13;11.43;;;;;;;;;;6596357;28;20256;-91
2022/11/07 09:35:47;;;;;;;15.80;13.37;;;;;;;;;;6596343;28;20637;-91
2022/11/07 09:38:58;;;;;;;15.53;12.73;;;;;;;;;;6597044;28;20183;-91
2022/11/07 09:42:26;;;;;;;17.73;13.70;;;;;;;;;;6596464;28;20164;-91
2022/11/07 09:45:40;;;;;;;17.87;13.80;;;;;;;;;;6618499;28;20187;-91
2022/11/07 09:48:56;;;;;;;17.97;13.03;;;;;;;;;;6593838;28;20180;-91
2022/11/07 09:52:41;;;;;;;14.53;12.70;;;;;;;;;;6595909;28;20254;-90
2022/11/07 09:55:54;;;;;;;19.73;14.80;;;;;;;;;;6593698;28;20184;-91
2022/11/07 09:59:21;;;;;;;14.97;13.37;;;;;;;;;;6594859;28;20177;-91
2022/11/07 10:06:39;;;;;;;16.50;13.10;;;;;;;;;;6594601;28;20215;-92
2022/11/07 10:18:05;;;;;;;13.17;11.07;;;;;;;;;;6640880;28;20170;-91
2022/11/07 10:21:18;;;;;;;15.33;13.47;;;;;;;;;;6623921;28;20189;-91
2022/11/07 19:01:08;;;;;;;21.33;15.83;;;;;;;;;;6645533;28;20315;-96
2022/11/07 19:04:18;;;;;;;21.63;14.90;;;;;;;;;;6646476;28;20183;-95
2022/11/07 19:07:30;;;;;;;23.13;16.00;;;;;;;;;;6622070;28;20168;-95
2022/11/07 19:10:41;;;;;;;24.10;16.97;;;;;;;;;;6614851;28;20567;-94
2022/11/07 19:13:53;;;;;;;21.07;15.30;;;;;;;;;;6620253;28;20212;-96
2022/11/07 19:17:04;;;;;;;20.30;15.00;;;;;;;;;;6621223;28;20211;-95
2022/11/07 19:20:14;;;;;;;21.67;17.00;;;;;;;;;;6620070;28;20172;-94
2022/11/07 19:23:25;;;;;;;19.90;15.20;;;;;;;;;;6620639;28;20271;-94
2022/11/07 19:26:37;;;;;;;17.60;13.90;;;;;;;;;;6619872;28;20179;-94
2022/11/07 19:29:50;;;;;;;15.50;12.60;;;;;;;;;;6621465;28;20576;-95
2022/11/07 19:33:01;;;;;;;16.03;12.80;;;;;;;;;;6620765;28;20581;-94
2022/11/07 19:36:12;;;;;;;18.47;13.67;;;;;;;;;;6620682;28;20184;-94
2022/11/07 19:39:23;;;;;;;16.30;13.93;;;;;;;;;;6621791;28;20168;-94
2022/11/07 19:42:33;;;;;;;19.03;14.67;;;;;;;;;;6624742;28;20264;-94
2022/11/07 19:45:44;;;;;;;20.07;15.17;;;;;;;;;;6625297;28;20176;-94
2022/11/07 19:48:55;;;;;;;23.53;17.10;;;;;;;;;;6624975;28;20179;-94
2022/11/07 19:52:05;;;;;;;25.00;17.93;;;;;;;;;;6625715;28;20199;-94
2022/11/07 19:55:17;;;;;;;26.13;18.70;;;;;;;;;;6623960;28;20196;-94
2022/11/07 19:58:27;;;;;;;26.40;19.63;;;;;;;;;;6621937;28;20228;-94
2022/11/07 20:01:38;;;;;;;25.37;18.87;;;;;;;;;;6565960;28;20695;-95
2022/11/07 20:04:48;;;;;;;20.83;15.80;;;;;;;;;;6581313;28;20180;-94
2022/11/07 20:08:01;;;;;;;20.60;16.27;;;;;;;;;;6581366;28;20579;-95
2022/11/07 20:11:12;;;;;;;19.40;15.83;;;;;;;;;;6599192;28;20173;-94
2022/11/07 20:14:24;;;;;;;23.67;16.80;;;;;;;;;;6599420;28;20208;-94
2022/11/07 20:17:35;;;;;;;19.73;15.00;;;;;;;;;;6581688;28;20177;-94
2022/11/07 20:20:45;;;;;;;21.93;15.77;;;;;;;;;;6598941;28;20179;-95
2022/11/07 20:23:58;;;;;;;19.47;15.87;;;;;;;;;;6598538;28;20180;-94
2022/11/07 20:27:08;;;;;;;19.60;15.93;;;;;;;;;;6599222;28;20544;-94
2022/11/07 20:30:18;;;;;;;21.00;15.30;;;;;;;;;;6598947;28;20180;-94
2022/11/07 20:33:29;;;;;;;17.77;13.70;;;;;;;;;;6580226;28;20295;-94
2022/11/07 20:36:39;;;;;;;18.70;13.37;;;;;;;;;;6580794;28;20180;-94
2022/11/07 20:39:50;;;;;;;18.33;14.00;;;;;;;;;;6581080;28;20526;-94
2022/11/07 20:43:01;;;;;;;17.60;13.87;;;;;;;;;;6598817;28;20176;-95
2022/11/07 20:46:14;;;;;;;18.13;13.40;;;;;;;;;;6598668;28;20172;-95
2022/11/07 20:49:24;;;;;;;17.87;14.10;;;;;;;;;;6580610;28;20264;-95
2022/11/07 20:52:34;;;;;;;17.50;14.13;;;;;;;;;;6580422;28;20664;-94
2022/11/07 20:55:45;;;;;;;18.60;13.90;;;;;;;;;;6580380;28;20196;-95
2022/11/07 20:58:57;;;;;;;16.13;12.83;;;;;;;;;;6582320;28;20239;-95
2022/11/07 21:02:11;;;;;;;18.63;12.70;;;;;;;;;;6580923;28;20188;-94
2022/11/07 21:05:21;;;;;;;19.13;12.83;;;;;;;;;;6580406;28;20180;-95
2022/11/07 21:08:31;;;;;;;20.07;13.97;;;;;;;;;;6597305;28;20176;-95
2022/11/07 21:11:43;;;;;;;19.10;13.87;;;;;;;;;;6598177;28;20207;-94
2022/11/07 21:14:53;;;;;;;19.17;13.80;;;;;;;;;;6580624;28;20208;-94
2022/11/07 21:18:04;;;;;;;19.80;14.57;;;;;;;;;;6598380;28;20231;-95
2022/11/07 21:21:17;;;;;;;21.53;16.60;;;;;;;;;;6580586;28;20178;-95
2022/11/07 21:24:31;;;;;;;23.17;17.80;;;;;;;;;;6598566;28;20176;-95
2022/11/07 21:27:41;;;;;;;20.87;15.33;;;;;;;;;;6579956;28;20176;-95
2022/11/07 21:30:58;;;;;;;20.67;15.37;;;;;;;;;;6597238;28;20204;-95
2022/11/07 21:34:10;;;;;;;25.97;16.53;;;;;;;;;;6579171;28;20295;-95
2022/11/07 21:37:20;;;;;;;21.87;15.63;;;;;;;;;;6579660;28;20176;-95
2022/11/07 21:40:30;;;;;;;21.93;15.10;;;;;;;;;;6579233;28;20207;-95
2022/11/07 21:43:41;;;;;;;22.57;15.50;;;;;;;;;;6579609;28;20540;-95
2022/11/07 21:46:52;;;;;;;22.90;15.87;;;;;;;;;;6579242;28;20176;-95
2022/11/07 21:50:03;;;;;;;26.03;16.93;;;;;;;;;;6579552;28;20184;-93
2022/11/07 21:53:13;;;;;;;26.93;18.23;;;;;;;;;;6577952;28;20240;-93
2022/11/07 21:56:29;;;;;;;24.37;17.80;;;;;;;;;;6596715;28;20537;-93
2022/11/07 21:59:39;;;;;;;20.57;15.73;;;;;;;;;;6597553;28;20228;-93
2022/11/07 22:02:49;;;;;;;22.07;15.97;;;;;;;;;;6596834;28;20188;-93
2022/11/07 22:06:04;;;;;;;21.90;16.00;;;;;;;;;;6578814;28;20621;-93
2022/11/07 22:09:15;;;;;;;27.03;17.47;;;;;;;;;;6596773;28;20218;-93
2022/11/07 22:12:25;;;;;;;21.77;15.73;;;;;;;;;;6596642;28;20204;-93
2022/11/07 22:15:36;;;;;;;24.33;16.27;;;;;;;;;;6596240;28;20259;-92
2022/11/07 22:18:52;;;;;;;28.80;20.20;;;;;;;;;;6596908;28;20165;-93
2022/11/07 22:22:02;;;;;;;26.67;21.53;;;;;;;;;;6578741;28;20275;-93
2022/11/07 22:25:13;;;;;;;26.90;18.17;;;;;;;;;;6596523;28;20169;-93
2022/11/07 22:28:23;;;;;;;28.77;19.20;;;;;;;;;;6597178;28;20517;-93
2022/11/07 22:31:33;;;;;;;24.50;17.30;;;;;;;;;;6596414;28;20172;-93
2022/11/07 22:34:44;;;;;;;25.73;17.30;;;;;;;;;;6596624;28;20556;-93
2022/11/07 22:37:55;;;;;;;25.30;16.60;;;;;;;;;;6578513;28;20180;-93
2022/11/07 22:41:10;;;;;;;25.73;16.63;;;;;;;;;;6578831;28;20181;-93
2022/11/07 22:44:20;;;;;;;28.03;17.67;;;;;;;;;;6597398;28;20512;-93
2022/11/07 22:47:35;;;;;;;24.70;18.60;;;;;;;;;;6596993;28;20165;-93
